createdAt,value
2023-05-03T00:01:44.350Z,100.00
2023-05-03T00:04:11.722Z,100.00
2023-05-03T00:06:38.747Z,100.00
2023-05-03T00:09:05.758Z,100.00
2023-05-03T00:11:33.913Z,100.00
2023-05-03T00:14:01.216Z,100.00
2023-05-03T00:16:28.199Z,100.00
2023-05-03T00:18:55.356Z,100.00
2023-05-03T00:21:22.325Z,100.00
2023-05-03T00:23:49.231Z,100.00
2023-05-03T00:26:16.260Z,100.00
2023-05-03T00:28:43.182Z,100.00
2023-05-03T00:31:11.245Z,100.00
2023-05-03T00:33:39.702Z,100.00
2023-05-03T00:36:11.697Z,100.00
2023-05-03T00:38:39.346Z,100.00
2023-05-03T00:41:07.112Z,100.00
2023-05-03T00:43:35.597Z,100.00
2023-05-03T00:46:15.921Z,100.00
2023-05-03T00:48:46.946Z,100.00
2023-05-03T00:51:15.386Z,100.00
2023-05-03T00:53:43.604Z,100.00
2023-05-03T00:56:12.197Z,100.00
2023-05-03T00:58:40.688Z,100.00
2023-05-03T01:01:08.374Z,100.00
2023-05-03T01:03:38.098Z,100.00
2023-05-03T01:06:08.109Z,100.00
2023-05-03T01:08:58.904Z,100.00
2023-05-03T01:11:44.827Z,100.00
2023-05-03T01:14:39.116Z,100.00
2023-05-03T01:17:12.173Z,100.00
2023-05-03T01:19:51.702Z,100.00
2023-05-03T01:22:36.484Z,100.00
2023-05-03T01:25:09.456Z,100.00
2023-05-03T01:27:37.584Z,100.00
2023-05-03T01:30:06.226Z,100.00
2023-05-03T01:32:43.926Z,100.00
2023-05-03T01:35:40.834Z,100.00
2023-05-03T01:38:09.032Z,100.00
2023-05-03T01:40:50.049Z,100.00
2023-05-03T01:43:18.582Z,100.00
2023-05-03T01:45:46.203Z,100.00
2023-05-03T01:48:17.252Z,100.00
2023-05-03T01:50:44.852Z,100.00
2023-05-03T01:53:12.160Z,100.00
2023-05-03T01:55:39.148Z,100.00
2023-05-03T01:58:06.522Z,100.00
2023-05-03T02:00:33.781Z,100.00
2023-05-03T02:03:00.833Z,100.00
2023-05-03T02:05:27.833Z,100.00
2023-05-03T02:07:54.827Z,100.00
2023-05-03T02:10:21.795Z,100.00
2023-05-03T02:12:48.850Z,100.00
2023-05-03T02:15:15.830Z,100.00
2023-05-03T02:17:43.461Z,100.00
2023-05-03T02:20:10.722Z,100.00
2023-05-03T02:22:37.624Z,100.00
2023-05-03T02:25:05.411Z,100.00
2023-05-03T02:27:32.446Z,100.00
2023-05-03T02:29:59.412Z,100.00
2023-05-03T02:32:26.546Z,100.00
2023-05-03T02:34:54.885Z,100.00
2023-05-03T02:37:21.798Z,100.00
2023-05-03T02:39:48.724Z,100.00
2023-05-03T02:42:16.445Z,100.00
2023-05-03T02:44:43.354Z,100.00
2023-05-03T02:47:10.762Z,100.00
2023-05-03T02:49:37.756Z,100.00
2023-05-03T02:52:04.736Z,100.00
2023-05-03T02:54:31.660Z,100.00
2023-05-03T02:56:58.758Z,100.00
2023-05-03T02:59:25.643Z,100.00
2023-05-03T03:01:52.569Z,100.00
2023-05-03T03:04:19.615Z,100.00
2023-05-03T03:06:46.992Z,100.00
2023-05-03T03:09:13.936Z,100.00
2023-05-03T03:11:41.539Z,100.00
2023-05-03T03:14:08.456Z,100.00
2023-05-03T03:16:35.585Z,100.00
2023-05-03T03:19:02.563Z,100.00
2023-05-03T03:21:29.858Z,100.00
2023-05-03T03:23:57.138Z,100.00
2023-05-03T03:26:24.642Z,100.00
2023-05-03T03:28:52.149Z,100.00
2023-05-03T03:31:19.057Z,100.00
2023-05-03T03:33:46.498Z,100.00
2023-05-03T03:36:13.590Z,100.00
2023-05-03T03:38:41.458Z,100.00
2023-05-03T03:41:08.784Z,100.00
2023-05-03T03:43:35.685Z,100.00
2023-05-03T03:46:02.606Z,100.00
2023-05-03T03:48:29.546Z,100.00
2023-05-03T03:50:56.615Z,100.00
2023-05-03T03:53:23.814Z,100.00
2023-05-03T03:55:50.718Z,100.00
2023-05-03T03:58:17.646Z,100.00
2023-05-03T04:00:44.712Z,100.00
2023-05-03T04:03:11.977Z,100.00
2023-05-03T04:05:39.018Z,100.00
2023-05-03T04:08:06.414Z,100.00
2023-05-03T04:10:33.377Z,100.00
2023-05-03T04:13:00.415Z,100.00
2023-05-03T04:15:27.622Z,100.00
2023-05-03T04:17:54.651Z,100.00
2023-05-03T04:20:21.753Z,100.00
2023-05-03T04:22:48.687Z,100.00
2023-05-03T04:25:17.448Z,100.00
2023-05-03T04:27:45.557Z,100.00
2023-05-03T04:30:14.258Z,100.00
2023-05-03T04:32:42.894Z,100.00
2023-05-03T04:35:12.802Z,100.00
2023-05-03T04:37:42.167Z,100.00
2023-05-03T04:40:12.867Z,100.00
2023-05-03T04:42:39.787Z,100.00
2023-05-03T04:45:09.923Z,100.00
2023-05-03T04:47:37.333Z,100.00
2023-05-03T04:50:04.847Z,100.00
2023-05-03T04:52:32.204Z,100.00
2023-05-03T04:54:59.259Z,100.00
2023-05-03T04:57:26.314Z,100.00
2023-05-03T04:59:54.384Z,100.00
2023-05-03T05:02:21.930Z,100.00
2023-05-03T05:04:48.964Z,100.00
2023-05-03T05:07:16.363Z,100.00
2023-05-03T05:09:43.286Z,100.00
2023-05-03T05:12:10.295Z,100.00
2023-05-03T05:14:37.222Z,100.00
2023-05-03T05:17:04.243Z,100.00
2023-05-03T05:19:31.312Z,100.00
2023-05-03T05:21:58.249Z,100.00
2023-05-03T05:24:25.153Z,100.00
2023-05-03T05:26:52.279Z,100.00
2023-05-03T05:29:19.319Z,100.00
2023-05-03T05:31:46.462Z,100.00
2023-05-03T05:34:13.535Z,100.00
2023-05-03T05:36:40.496Z,100.00
2023-05-03T05:39:07.612Z,100.00
2023-05-03T05:41:34.621Z,100.00
2023-05-03T05:44:01.762Z,100.00
2023-05-03T05:46:28.759Z,100.00
2023-05-03T05:48:56.449Z,100.00
2023-05-03T05:51:27.224Z,100.00
2023-05-03T05:53:55.361Z,100.00
2023-05-03T05:56:22.375Z,100.00
2023-05-03T05:58:49.345Z,100.00
2023-05-03T06:01:16.633Z,100.00
2023-05-03T06:03:43.556Z,100.00
2023-05-03T06:06:12.094Z,100.00
2023-05-03T06:08:43.066Z,100.00
2023-05-03T06:11:10.380Z,100.00
2023-05-03T06:13:38.884Z,100.00
2023-05-03T06:16:06.353Z,100.00
2023-05-03T06:18:33.330Z,100.00
2023-05-03T06:21:00.327Z,100.00
2023-05-03T06:23:28.404Z,100.00
2023-05-03T06:25:55.463Z,100.00
2023-05-03T06:28:22.428Z,100.00
2023-05-03T06:30:50.501Z,100.00
2023-05-03T06:33:17.708Z,100.00
2023-05-03T06:35:47.343Z,100.00
2023-05-03T06:38:14.525Z,100.00
2023-05-03T06:40:44.252Z,100.00
2023-05-03T06:43:11.350Z,100.00
2023-05-03T06:45:40.139Z,100.00
2023-05-03T06:48:07.875Z,100.00
2023-05-03T06:50:35.135Z,100.00
2023-05-03T06:53:02.597Z,100.00
2023-05-03T06:55:29.640Z,100.00
2023-05-03T06:58:12.316Z,100.00
2023-05-03T07:00:40.281Z,100.00
2023-05-03T07:03:08.049Z,100.00
2023-05-03T07:05:35.213Z,100.00
2023-05-03T07:08:02.360Z,100.00
2023-05-03T07:10:31.629Z,100.00
2023-05-03T07:12:58.940Z,100.00
2023-05-03T07:15:26.182Z,100.00
2023-05-03T07:17:53.303Z,100.00
2023-05-03T07:20:21.895Z,100.00
2023-05-03T07:22:48.887Z,100.00
2023-05-03T07:25:18.054Z,100.00
2023-05-03T07:27:45.352Z,100.00
2023-05-03T07:30:12.653Z,100.00
2023-05-03T07:32:44.560Z,100.00
2023-05-03T07:35:11.841Z,100.00
2023-05-03T07:37:38.958Z,100.00
2023-05-03T07:40:07.599Z,100.00
2023-05-03T07:42:36.198Z,100.00
2023-05-03T07:45:03.342Z,100.00
2023-05-03T07:47:30.935Z,100.00
2023-05-03T07:49:58.012Z,100.00
2023-05-03T07:52:25.030Z,100.00
2023-05-03T07:54:53.549Z,100.00
2023-05-03T07:57:20.502Z,100.00
2023-05-03T07:59:47.862Z,100.00
2023-05-03T08:02:14.992Z,100.00
2023-05-03T08:04:42.358Z,100.00
2023-05-03T08:07:09.877Z,100.00
2023-05-03T08:09:36.956Z,100.00
2023-05-03T08:12:04.142Z,100.00
2023-05-03T08:14:31.191Z,100.00
2023-05-03T08:16:58.216Z,100.00
2023-05-03T08:19:26.684Z,100.00
2023-05-03T08:21:55.370Z,100.00
2023-05-03T08:24:26.848Z,100.00
2023-05-03T08:26:54.129Z,100.00
2023-05-03T08:29:21.438Z,100.00
2023-05-03T08:31:50.891Z,100.00
2023-05-03T08:34:18.004Z,100.00
2023-05-03T08:36:45.198Z,100.00
2023-05-03T08:39:12.461Z,100.00
2023-05-03T08:41:40.061Z,100.00
2023-05-03T08:44:08.767Z,100.00
2023-05-03T08:46:37.560Z,100.00
2023-05-03T08:49:09.382Z,100.00
2023-05-03T08:51:41.325Z,100.00
2023-05-03T08:54:08.915Z,100.00
2023-05-03T08:56:43.592Z,100.00
2023-05-03T08:59:14.323Z,100.00
2023-05-03T09:01:42.826Z,100.00
2023-05-03T09:04:11.528Z,100.00
2023-05-03T09:06:39.050Z,100.00
2023-05-03T09:09:08.671Z,100.00
2023-05-03T09:11:38.172Z,100.00
2023-05-03T09:14:14.179Z,100.00
2023-05-03T09:16:43.778Z,100.00
2023-05-03T09:19:12.801Z,100.00
2023-05-03T09:21:44.547Z,100.00
2023-05-03T09:24:19.365Z,100.00
2023-05-03T09:26:48.142Z,100.00
2023-05-03T09:29:48.692Z,100.00
2023-05-03T09:32:17.403Z,100.00
2023-05-03T09:34:45.630Z,100.00
2023-05-03T09:37:16.740Z,100.00
2023-05-03T09:39:46.766Z,100.00
2023-05-03T09:42:18.442Z,100.00
2023-05-03T09:44:54.347Z,100.00
2023-05-03T09:47:26.036Z,100.00
2023-05-03T09:49:53.150Z,100.00
2023-05-03T09:52:22.638Z,100.00
2023-05-03T09:54:51.822Z,100.00
2023-05-03T09:57:19.436Z,100.00
2023-05-03T09:59:47.237Z,100.00
2023-05-03T10:02:15.345Z,100.00
2023-05-03T10:04:47.945Z,100.00
2023-05-03T10:07:18.649Z,100.00
2023-05-03T10:09:49.008Z,100.00
2023-05-03T10:12:19.289Z,100.00
2023-05-03T10:14:50.035Z,100.00
2023-05-03T10:17:35.361Z,100.00
2023-05-03T10:20:41.730Z,100.00
2023-05-03T10:23:11.225Z,100.00
2023-05-03T10:25:40.471Z,100.00
2023-05-03T10:28:09.789Z,100.00
2023-05-03T10:30:40.859Z,100.00
2023-05-03T10:33:13.931Z,100.00
2023-05-03T10:35:43.241Z,100.00
2023-05-03T10:38:18.013Z,100.00
2023-05-03T10:40:45.175Z,100.00
2023-05-03T10:43:33.614Z,100.00
2023-05-03T10:46:29.566Z,100.00
2023-05-03T10:49:16.395Z,100.00
2023-05-03T10:51:45.754Z,100.00
2023-05-03T10:54:13.001Z,100.00
2023-05-03T10:57:01.803Z,100.00
2023-05-03T10:59:48.456Z,100.00
2023-05-03T11:02:21.706Z,100.00
2023-05-03T11:04:52.560Z,100.00
2023-05-03T11:07:24.980Z,100.00
2023-05-03T11:09:52.463Z,100.00
2023-05-03T11:12:20.024Z,100.00
2023-05-03T11:14:47.013Z,100.00
2023-05-03T11:17:14.287Z,100.00
2023-05-03T11:19:44.006Z,100.00
2023-05-03T11:22:12.746Z,100.00
2023-05-03T11:24:39.719Z,100.00
2023-05-03T11:27:08.715Z,100.00
2023-05-03T11:29:36.426Z,100.00
2023-05-03T11:32:03.602Z,100.00
2023-05-03T11:34:31.482Z,100.00
2023-05-03T11:36:59.994Z,100.00
2023-05-03T11:39:28.613Z,100.00
2023-05-03T11:42:05.244Z,100.00
2023-05-03T11:44:32.460Z,100.00
2023-05-03T11:46:59.663Z,100.00
2023-05-03T11:49:26.899Z,100.00
2023-05-03T11:51:55.171Z,100.00
2023-05-03T11:54:26.960Z,100.00
2023-05-03T11:56:58.580Z,100.00
2023-05-03T11:59:37.346Z,100.00
2023-05-03T12:02:06.055Z,100.00
2023-05-03T12:04:33.603Z,100.00
2023-05-03T12:07:02.835Z,100.00
2023-05-03T12:09:31.586Z,100.00
2023-05-03T12:12:01.643Z,100.00
2023-05-03T12:14:30.148Z,100.00
2023-05-03T12:17:00.424Z,100.00
2023-05-03T12:19:32.918Z,100.00
2023-05-03T12:24:33.368Z,100.00
2023-05-03T12:27:02.795Z,100.00
2023-05-03T12:29:34.809Z,100.00
2023-05-03T12:32:04.310Z,100.00
2023-05-03T12:34:35.705Z,100.00
2023-05-03T12:37:05.770Z,100.00
2023-05-03T12:39:34.195Z,100.00
2023-05-03T12:42:07.998Z,100.00
2023-05-03T12:44:36.082Z,100.00
2023-05-03T12:47:04.619Z,100.00
2023-05-03T12:49:32.285Z,100.00
2023-05-03T12:52:34.757Z,100.00
2023-05-03T12:54:49.185Z,100.00
2023-05-03T12:57:22.898Z,100.00
2023-05-03T13:00:01.626Z,100.00
2023-05-03T13:05:01.065Z,100.00
2023-05-03T13:07:31.612Z,100.00
2023-05-03T13:12:32.807Z,100.00
2023-05-03T13:15:03.002Z,100.00
2023-05-03T13:17:32.558Z,100.00
2023-05-03T13:20:03.783Z,100.00
2023-05-03T13:23:24.084Z,100.00
2023-05-03T13:25:54.487Z,100.00
2023-05-03T13:28:24.591Z,100.00
2023-05-03T13:30:51.541Z,100.00
2023-05-03T13:33:18.648Z,100.00
2023-05-03T13:35:48.147Z,100.00
2023-05-03T13:38:16.101Z,100.00
2023-05-03T13:40:43.187Z,100.00
2023-05-03T13:43:10.391Z,100.00
2023-05-03T13:45:37.402Z,100.00
2023-05-03T13:48:18.798Z,100.00
2023-05-03T13:50:46.575Z,100.00
2023-05-03T13:53:13.561Z,100.00
2023-05-03T13:55:41.077Z,100.00
2023-05-03T13:58:08.660Z,100.00
2023-05-03T14:00:36.923Z,100.00
2023-05-03T14:03:04.645Z,100.00
2023-05-03T14:05:31.780Z,100.00
2023-05-03T14:07:58.907Z,100.00
2023-05-03T14:10:26.477Z,100.00
2023-05-03T14:12:53.761Z,100.00
2023-05-03T14:15:20.986Z,100.00
2023-05-03T14:17:48.277Z,100.00
2023-05-03T14:20:17.998Z,99.65
2023-05-03T14:22:45.695Z,100.00
2023-05-03T14:25:13.116Z,100.00
2023-05-03T14:27:40.524Z,100.00
2023-05-03T14:30:09.827Z,100.00
2023-05-03T14:32:37.102Z,100.00
2023-05-03T14:35:04.636Z,100.00
2023-05-03T14:37:31.861Z,100.00
2023-05-03T14:40:04.485Z,100.00
2023-05-03T14:42:33.360Z,100.00
2023-05-03T14:45:13.524Z,100.00
2023-05-03T14:47:41.868Z,100.00
2023-05-03T14:50:09.737Z,100.00
2023-05-03T14:52:38.138Z,100.00
2023-05-03T14:55:08.715Z,100.00
2023-05-03T14:57:36.574Z,100.00
2023-05-03T15:00:06.550Z,100.00
2023-05-03T15:02:34.000Z,100.00
2023-05-03T15:05:01.544Z,100.00
2023-05-03T15:07:28.748Z,100.00
2023-05-03T15:09:55.827Z,100.00
2023-05-03T15:12:22.795Z,100.00
2023-05-03T15:14:49.757Z,100.00
2023-05-03T15:17:16.898Z,100.00
2023-05-03T15:19:43.929Z,100.00
2023-05-03T15:22:10.880Z,100.00
2023-05-03T15:24:37.881Z,100.00
2023-05-03T15:27:04.970Z,100.00
2023-05-03T15:29:31.958Z,100.00
2023-05-03T15:31:58.948Z,100.00
2023-05-03T15:34:26.405Z,100.00
2023-05-03T15:36:53.354Z,100.00
2023-05-03T15:39:20.436Z,100.00
2023-05-03T15:41:47.460Z,100.00
2023-05-03T15:44:15.240Z,100.00
2023-05-03T15:46:43.033Z,100.00
2023-05-03T15:49:10.597Z,100.00
2023-05-03T15:51:37.825Z,100.00
2023-05-03T15:54:05.027Z,100.00
2023-05-03T15:56:32.661Z,100.00
2023-05-03T15:58:59.882Z,100.00
2023-05-03T16:01:27.190Z,100.00
2023-05-03T16:03:54.284Z,100.00
2023-05-03T16:06:21.309Z,100.00
2023-05-03T16:08:48.250Z,100.00
2023-05-03T16:11:15.313Z,100.00
2023-05-03T16:13:42.405Z,100.00
2023-05-03T16:16:09.429Z,100.00
2023-05-03T16:18:36.550Z,100.00
2023-05-03T16:21:03.775Z,100.00
2023-05-03T16:23:30.739Z,100.00
2023-05-03T16:25:57.758Z,100.00
2023-05-03T16:28:24.797Z,100.00
2023-05-03T16:30:52.135Z,100.00
2023-05-03T16:33:19.753Z,100.00
2023-05-03T16:35:46.694Z,100.00
2023-05-03T16:38:13.735Z,100.00
2023-05-03T16:40:40.909Z,100.00
2023-05-03T16:43:07.966Z,100.00
2023-05-03T16:45:35.081Z,100.00
2023-05-03T16:48:04.502Z,100.00
2023-05-03T16:50:33.187Z,100.00
2023-05-03T16:53:00.205Z,100.00
2023-05-03T16:55:27.215Z,100.00
2023-05-03T16:57:54.204Z,100.00
2023-05-03T17:00:21.998Z,100.00
2023-05-03T17:02:49.178Z,100.00
2023-05-03T17:05:16.316Z,100.00
2023-05-03T17:07:43.249Z,100.00
2023-05-03T17:10:10.718Z,100.00
2023-05-03T17:12:37.862Z,100.00
2023-05-03T17:15:05.333Z,100.00
2023-05-03T17:17:32.921Z,100.00
2023-05-03T17:19:59.977Z,100.00
2023-05-03T17:22:26.949Z,100.00
2023-05-03T17:24:55.460Z,100.00
2023-05-03T17:27:24.408Z,100.00
2023-05-03T17:29:51.680Z,100.00
2023-05-03T17:32:18.590Z,100.00
2023-05-03T17:34:45.550Z,100.00
2023-05-03T17:37:12.469Z,100.00
2023-05-03T17:39:39.757Z,100.00
2023-05-03T17:42:06.697Z,100.00
2023-05-03T17:44:33.808Z,100.00
2023-05-03T17:47:01.124Z,100.00
2023-05-03T17:49:28.128Z,100.00
2023-05-03T17:51:55.127Z,100.00
2023-05-03T17:54:22.024Z,100.00
2023-05-03T17:56:48.997Z,100.00
2023-05-03T17:59:18.962Z,100.00
2023-05-03T18:01:48.120Z,100.00
2023-05-03T18:04:15.582Z,100.00
2023-05-03T18:06:42.534Z,100.00
2023-05-03T18:09:09.499Z,100.00
2023-05-03T18:11:36.486Z,100.00
2023-05-03T18:14:04.090Z,100.00
2023-05-03T18:16:31.735Z,100.00
2023-05-03T18:18:58.773Z,100.00
2023-05-03T18:21:27.912Z,100.00
2023-05-03T18:23:54.906Z,99.65
2023-05-03T18:26:21.858Z,100.00
2023-05-03T18:28:49.437Z,100.00
2023-05-03T18:31:17.456Z,100.00
2023-05-03T18:33:44.426Z,100.00
2023-05-03T18:36:12.220Z,100.00
2023-05-03T18:38:39.641Z,99.11
2023-05-03T18:41:14.561Z,97.64
2023-05-03T18:43:46.544Z,95.53
2023-05-03T18:46:20.156Z,95.35
2023-05-03T18:48:48.064Z,96.71
2023-05-03T18:51:14.992Z,95.14
2023-05-03T18:53:41.925Z,93.06
2023-05-03T18:56:08.920Z,92.13
2023-05-03T18:58:36.006Z,91.57
2023-05-03T19:01:04.965Z,92.80
2023-05-03T19:03:32.061Z,92.57
2023-05-03T19:06:09.334Z,93.96
2023-05-03T19:08:36.220Z,95.03
2023-05-03T19:11:13.744Z,95.03
2023-05-03T19:13:50.260Z,96.42
2023-05-03T19:16:17.615Z,94.94
2023-05-03T19:18:45.663Z,93.43
2023-05-03T19:21:12.768Z,95.10
2023-05-03T19:23:39.717Z,94.20
2023-05-03T19:26:06.714Z,93.77
2023-05-03T19:28:33.766Z,95.44
2023-05-03T19:31:07.201Z,95.43
2023-05-03T19:33:34.229Z,95.16
2023-05-03T19:36:06.961Z,96.11
2023-05-03T19:38:36.641Z,96.25
2023-05-03T19:41:09.782Z,100.00
2023-05-03T19:43:36.766Z,100.00
2023-05-03T19:46:03.754Z,100.00
2023-05-03T19:48:31.129Z,100.00
2023-05-03T19:50:59.068Z,100.00
2023-05-03T19:53:26.827Z,100.00
2023-05-03T19:56:01.381Z,100.00
2023-05-03T19:58:28.775Z,100.00
2023-05-03T20:00:58.676Z,100.00
2023-05-03T20:03:25.849Z,100.00
2023-05-03T20:05:52.928Z,100.00
2023-05-03T20:08:20.013Z,100.00
2023-05-03T20:10:47.008Z,100.00
2023-05-03T20:13:14.187Z,100.00
2023-05-03T20:15:41.802Z,100.00
2023-05-03T20:18:09.033Z,100.00
2023-05-03T20:20:36.889Z,100.00
2023-05-03T20:23:03.790Z,100.00
2023-05-03T20:25:30.726Z,99.73
2023-05-03T20:27:58.075Z,100.00
2023-05-03T20:30:25.488Z,100.00
2023-05-03T20:32:52.594Z,99.73
2023-05-03T20:35:19.722Z,99.52
2023-05-03T20:37:46.755Z,98.65
2023-05-03T20:40:13.664Z,97.56
2023-05-03T20:42:40.666Z,97.42
2023-05-03T20:45:08.107Z,97.70
2023-05-03T20:47:35.137Z,98.48
2023-05-03T20:50:02.401Z,98.04
2023-05-03T20:52:29.463Z,98.40
2023-05-03T20:54:56.385Z,98.65
2023-05-03T20:57:23.328Z,99.87
2023-05-03T20:59:50.246Z,98.72
2023-05-03T21:02:17.235Z,98.04
2023-05-03T21:04:44.227Z,100.00
2023-05-03T21:07:11.249Z,98.90
2023-05-03T21:09:38.836Z,99.77
2023-05-03T21:12:06.058Z,99.35
2023-05-03T21:14:32.989Z,100.00
2023-05-03T21:17:01.624Z,100.00
2023-05-03T21:19:28.616Z,100.00
2023-05-03T21:21:55.612Z,100.00
2023-05-03T21:24:25.803Z,100.00
2023-05-03T21:26:52.725Z,100.00
2023-05-03T21:29:19.715Z,100.00
2023-05-03T21:31:46.699Z,100.00
2023-05-03T21:34:13.648Z,100.00
2023-05-03T21:36:40.576Z,100.00
2023-05-03T21:39:07.711Z,100.00
2023-05-03T21:41:35.040Z,100.00
2023-05-03T21:44:02.469Z,100.00
2023-05-03T21:46:29.468Z,100.00
2023-05-03T21:48:56.442Z,100.00
2023-05-03T21:51:23.505Z,100.00
2023-05-03T21:53:50.603Z,100.00
2023-05-03T21:56:17.619Z,100.00
2023-05-03T21:58:45.778Z,100.00
2023-05-03T22:01:15.455Z,100.00
2023-05-03T22:03:42.313Z,100.00
2023-05-03T22:06:09.832Z,100.00
2023-05-03T22:08:37.112Z,100.00
2023-05-03T22:11:07.416Z,100.00
2023-05-03T22:13:43.189Z,100.00
2023-05-03T22:16:18.502Z,100.00
2023-05-03T22:18:45.539Z,100.00
2023-05-03T22:21:12.569Z,100.00
2023-05-03T22:23:39.454Z,100.00
2023-05-03T22:26:06.501Z,100.00
2023-05-03T22:28:33.641Z,100.00
2023-05-03T22:31:00.593Z,100.00
2023-05-03T22:33:27.556Z,100.00
2023-05-03T22:35:54.498Z,100.00
2023-05-03T22:38:22.028Z,100.00
2023-05-03T22:40:48.994Z,100.00
2023-05-03T22:43:16.162Z,100.00
2023-05-03T22:45:43.531Z,100.00
2023-05-03T22:48:10.648Z,100.00
2023-05-03T22:50:37.685Z,100.00
2023-05-03T22:53:04.691Z,100.00
2023-05-03T22:55:31.584Z,100.00
2023-05-03T22:57:58.534Z,100.00
2023-05-03T23:00:25.621Z,100.00
2023-05-03T23:02:52.745Z,100.00
2023-05-03T23:05:19.854Z,100.00
2023-05-03T23:07:46.811Z,100.00
2023-05-03T23:10:14.048Z,100.00
2023-05-03T23:12:41.296Z,100.00
2023-05-03T23:15:08.566Z,100.00
2023-05-03T23:17:35.528Z,100.00
2023-05-03T23:20:02.879Z,100.00
2023-05-03T23:22:30.188Z,100.00
2023-05-03T23:24:57.089Z,100.00
2023-05-03T23:27:24.066Z,100.00
2023-05-03T23:29:52.177Z,100.00
2023-05-03T23:32:19.782Z,100.00
2023-05-03T23:34:46.975Z,100.00
2023-05-03T23:37:13.936Z,100.00
2023-05-03T23:39:45.128Z,100.00
2023-05-03T23:42:13.069Z,100.00
2023-05-03T23:44:53.825Z,100.00
2023-05-03T23:47:22.538Z,100.00
2023-05-03T23:49:49.751Z,100.00
2023-05-03T23:52:20.619Z,100.00
2023-05-03T23:54:47.691Z,100.00
2023-05-03T23:57:14.599Z,100.00
2023-05-03T23:59:41.503Z,100.00
